createdAt,value
2019-05-18T00:00:35.878Z,7.37
2019-05-18T00:03:07.918Z,7.42
2019-05-18T00:05:40.157Z,7.70
2019-05-18T00:08:12.466Z,7.60
2019-05-18T00:10:44.471Z,7.97
2019-05-18T00:13:16.688Z,8.85
2019-05-18T00:15:48.668Z,8.20
2019-05-18T00:18:20.633Z,8.85
2019-05-18T00:20:52.870Z,8.40
2019-05-18T00:23:24.834Z,9.20
2019-05-18T00:25:56.871Z,8.50
2019-05-18T00:28:29.006Z,9.23
2019-05-18T00:31:01.028Z,9.25
2019-05-18T00:33:33.170Z,9.30
2019-05-18T00:36:06.631Z,9.25
2019-05-18T00:38:38.779Z,9.05
2019-05-18T00:41:10.754Z,9.00
2019-05-18T00:43:42.914Z,9.45
2019-05-18T00:46:15.003Z,9.25
2019-05-18T00:48:47.058Z,8.83
2019-05-18T00:51:19.115Z,9.03
2019-05-18T00:53:51.138Z,9.20
2019-05-18T00:56:23.229Z,8.43
2019-05-18T00:58:55.355Z,8.80
2019-05-18T01:01:27.351Z,9.40
2019-05-18T01:03:59.425Z,9.70
2019-05-18T01:06:31.450Z,8.40
2019-05-18T01:09:04.565Z,9.78
2019-05-18T01:11:36.703Z,9.73
2019-05-18T01:14:08.777Z,10.00
2019-05-18T01:16:41.244Z,9.75
2019-05-18T01:19:13.271Z,10.05
2019-05-18T01:21:45.467Z,11.12
2019-05-18T01:24:17.538Z,9.58
2019-05-18T01:26:49.604Z,10.15
2019-05-18T01:29:21.710Z,11.10
2019-05-18T01:31:53.850Z,10.85
2019-05-18T01:34:25.916Z,12.07
2019-05-18T01:36:58.015Z,12.10
2019-05-18T01:39:30.216Z,11.25
2019-05-18T01:42:02.392Z,9.45
2019-05-18T01:44:34.398Z,11.00
2019-05-18T01:47:06.514Z,10.32
2019-05-18T01:49:40.349Z,11.65
2019-05-18T01:52:12.527Z,11.15
2019-05-18T01:54:44.665Z,10.23
2019-05-18T01:57:17.044Z,11.25
2019-05-18T01:59:48.966Z,11.60
2019-05-18T02:02:21.230Z,12.05
2019-05-18T02:04:54.750Z,12.60
2019-05-18T02:07:26.880Z,10.78
2019-05-18T02:09:59.063Z,10.93
2019-05-18T02:12:31.077Z,9.95
2019-05-18T02:15:03.230Z,10.18
2019-05-18T02:17:35.380Z,10.80
2019-05-18T02:20:08.701Z,11.63
2019-05-18T02:22:40.699Z,11.95
2019-05-18T02:25:13.215Z,10.13
2019-05-18T02:27:46.218Z,11.03
2019-05-18T02:33:27.790Z,10.10
2019-05-18T02:36:11.360Z,9.70
2019-05-18T02:38:55.011Z,10.75
2019-05-18T02:41:46.228Z,11.53
2019-05-18T02:44:30.135Z,10.80
2019-05-18T02:47:13.978Z,10.20
2019-05-18T02:49:57.627Z,10.35
2019-05-18T02:52:48.716Z,10.55
2019-05-18T02:55:32.807Z,10.10
2019-05-18T02:58:24.008Z,10.48
2019-05-18T03:01:07.652Z,9.68
2019-05-18T03:03:51.540Z,10.10
2019-05-18T03:06:42.740Z,9.95
2019-05-18T03:09:26.723Z,9.30
2019-05-18T03:12:18.068Z,9.15
2019-05-18T03:15:03.190Z,8.40
2019-05-18T03:17:54.381Z,9.60
2019-05-18T03:20:38.319Z,9.20
2019-05-18T03:23:29.564Z,9.00
2019-05-18T03:26:13.098Z,8.45
2019-05-18T03:29:04.332Z,8.38
2019-05-18T03:31:46.922Z,9.48
2019-05-18T03:34:38.479Z,8.15
2019-05-18T03:37:10.464Z,9.23
2019-05-18T03:39:54.578Z,8.88
2019-05-18T03:42:38.150Z,8.10
2019-05-18T03:45:21.793Z,7.60
2019-05-18T03:48:06.190Z,8.05
2019-05-18T03:50:57.270Z,8.23
2019-05-18T03:53:40.810Z,8.30
2019-05-18T03:56:32.279Z,7.10
2019-05-18T03:59:05.910Z,8.23
2019-05-18T04:01:37.949Z,8.00
2019-05-18T04:04:21.771Z,8.45
2019-05-18T04:07:12.801Z,7.65
2019-05-18T04:09:57.823Z,17.77
2019-05-18T04:12:30.014Z,11.90
2019-05-18T04:15:02.106Z,11.20
2019-05-18T04:17:35.866Z,13.22
2019-05-18T04:20:28.642Z,12.07
2019-05-18T04:23:01.055Z,12.85
2019-05-18T04:25:44.754Z,8.38
2019-05-18T04:28:36.441Z,7.67
2019-05-18T04:31:20.678Z,7.55
2019-05-18T04:34:12.122Z,7.70
2019-05-18T04:36:57.418Z,9.43
2019-05-18T04:39:49.253Z,11.45
2019-05-18T04:42:33.820Z,10.00
2019-05-18T04:45:25.195Z,10.18
2019-05-18T04:48:10.211Z,8.88
2019-05-18T04:50:54.617Z,8.83
2019-05-18T04:53:46.021Z,9.00
2019-05-18T04:56:29.981Z,8.15
2019-05-18T04:59:14.540Z,7.30
2019-05-18T05:02:05.461Z,8.55
2019-05-18T05:04:57.008Z,9.98
2019-05-18T05:08:00.942Z,10.15
2019-05-18T05:10:52.421Z,9.48
2019-05-18T05:13:36.260Z,9.38
2019-05-18T05:16:21.592Z,8.30
2019-05-18T05:19:13.013Z,9.00
2019-05-18T05:21:45.502Z,9.05
2019-05-18T05:24:36.945Z,9.30
2019-05-18T05:27:21.029Z,8.98
2019-05-18T05:30:12.646Z,8.58
2019-05-18T05:32:45.059Z,10.45
2019-05-18T05:35:37.820Z,11.20
2019-05-18T05:38:16.471Z,10.43
2019-05-18T05:41:07.918Z,8.10
2019-05-18T05:43:40.330Z,8.93
2019-05-18T05:46:31.734Z,10.05
2019-05-18T05:49:15.878Z,9.03
2019-05-18T05:51:49.221Z,7.40
2019-05-18T05:54:34.527Z,9.60
2019-05-18T05:57:06.972Z,6.97
2019-05-18T05:59:51.268Z,6.87
2019-05-18T06:02:36.151Z,5.75
2019-05-18T06:05:29.206Z,6.75
2019-05-18T06:08:20.525Z,9.40
2019-05-18T06:11:04.499Z,7.20
2019-05-18T06:13:55.867Z,6.47
2019-05-18T06:16:28.200Z,6.70
2019-05-18T06:19:11.718Z,6.58
2019-05-18T06:21:44.080Z,6.45
2019-05-18T06:24:16.173Z,6.72
2019-05-18T06:26:49.010Z,6.75
2019-05-18T06:29:40.365Z,7.45
2019-05-18T06:32:23.861Z,7.05
2019-05-18T06:34:55.862Z,7.05
2019-05-18T06:38:06.770Z,7.08
2019-05-18T06:40:52.356Z,6.95
2019-05-18T06:43:42.871Z,7.58
2019-05-18T06:46:30.048Z,7.35
2019-05-18T06:52:37.504Z,7.03
2019-05-18T06:55:25.495Z,7.00
2019-05-18T06:58:19.367Z,6.72
2019-05-18T07:01:04.836Z,6.03
2019-05-18T07:03:56.191Z,6.78
2019-05-18T07:06:28.334Z,7.20
2019-05-18T07:09:19.466Z,7.65
2019-05-18T07:12:03.484Z,7.00
2019-05-18T07:14:46.897Z,7.40
2019-05-18T07:17:34.560Z,7.10
2019-05-18T07:20:24.798Z,7.47
2019-05-18T07:23:08.712Z,9.20
2019-05-18T07:25:59.846Z,8.10
2019-05-18T07:28:46.207Z,7.40
2019-05-18T07:31:37.406Z,8.98
2019-05-18T07:34:20.829Z,7.50
2019-05-18T07:37:12.028Z,7.45
2019-05-18T07:39:55.799Z,6.95
2019-05-18T07:42:39.758Z,7.00
2019-05-18T07:45:24.156Z,8.33
2019-05-18T07:47:56.305Z,7.75
2019-05-18T07:50:47.920Z,7.60
2019-05-18T07:53:32.868Z,9.25
2019-05-18T07:56:25.010Z,8.50
2019-05-18T07:59:08.737Z,8.58
2019-05-18T08:01:53.995Z,8.68
2019-05-18T08:04:45.154Z,8.30
2019-05-18T08:07:28.949Z,7.83
2019-05-18T08:10:01.014Z,8.70
2019-05-18T08:12:53.773Z,8.93
2019-05-18T08:15:37.622Z,8.73
2019-05-18T08:18:28.813Z,9.10
2019-05-18T08:21:00.895Z,9.33
2019-05-18T08:23:52.123Z,8.43
2019-05-18T08:33:02.185Z,8.00
2019-05-18T08:38:24.334Z,9.40
2019-05-18T08:40:56.466Z,8.40
2019-05-18T08:43:28.563Z,9.23
2019-05-18T08:46:00.632Z,10.50
2019-05-18T08:48:32.650Z,10.05
2019-05-18T08:51:04.632Z,10.20
2019-05-18T08:53:36.609Z,10.75
2019-05-18T08:56:08.509Z,10.48
2019-05-18T08:58:40.442Z,10.40
2019-05-18T09:01:12.579Z,11.70
2019-05-18T09:03:44.834Z,10.08
2019-05-18T09:06:16.852Z,11.03
2019-05-18T09:08:49.071Z,12.60
2019-05-18T09:11:21.191Z,11.68
2019-05-18T09:13:54.401Z,10.53
2019-05-18T09:16:26.923Z,10.40
2019-05-18T09:18:59.504Z,10.38
2019-05-18T09:21:31.628Z,10.23
2019-05-18T09:24:03.668Z,10.93
2019-05-18T09:26:35.697Z,12.20
2019-05-18T09:29:08.203Z,11.28
2019-05-18T09:31:40.276Z,10.85
2019-05-18T09:34:12.227Z,11.10
2019-05-18T09:36:44.406Z,11.25
2019-05-18T09:39:16.560Z,10.90
2019-05-18T09:41:48.639Z,12.03
2019-05-18T09:44:20.739Z,10.98
2019-05-18T09:46:52.841Z,11.65
2019-05-18T09:49:26.636Z,10.60
2019-05-18T09:51:58.960Z,10.43
2019-05-18T09:54:31.001Z,10.65
2019-05-18T09:57:03.404Z,11.43
2019-05-18T09:59:35.477Z,10.70
2019-05-18T10:02:07.645Z,11.00
2019-05-18T10:04:39.698Z,10.58
2019-05-18T10:07:11.745Z,11.05
2019-05-18T10:09:44.021Z,12.23
2019-05-18T10:12:16.149Z,11.15
2019-05-18T10:14:48.252Z,10.32
2019-05-18T10:17:20.246Z,10.35
2019-05-18T10:19:52.257Z,9.70
2019-05-18T10:22:24.380Z,10.32
2019-05-18T10:24:56.615Z,11.60
2019-05-18T10:27:28.684Z,10.88
2019-05-18T10:30:00.933Z,10.75
2019-05-18T10:32:33.125Z,12.28
2019-05-18T10:35:05.553Z,10.25
2019-05-18T10:37:37.689Z,9.38
2019-05-18T10:40:11.565Z,10.48
2019-05-18T10:42:43.565Z,8.65
2019-05-18T10:45:15.793Z,10.65
2019-05-18T10:47:48.200Z,10.00
2019-05-18T10:50:20.444Z,10.53
2019-05-18T10:52:52.840Z,9.88
2019-05-18T10:55:25.544Z,10.60
2019-05-18T10:57:57.552Z,9.83
2019-05-18T11:00:29.803Z,9.38
2019-05-18T11:03:01.900Z,6.25
2019-05-18T11:05:34.065Z,7.50
2019-05-18T11:08:06.174Z,7.03
2019-05-18T11:10:38.166Z,5.62
2019-05-18T11:13:10.378Z,7.05
2019-05-18T11:15:42.365Z,6.63
2019-05-18T11:18:14.470Z,7.50
2019-05-18T11:20:46.539Z,8.00
2019-05-18T11:23:18.750Z,6.63
2019-05-18T11:25:50.849Z,7.40
2019-05-18T11:28:22.880Z,7.75
2019-05-18T11:30:54.980Z,8.10
2019-05-18T11:33:27.294Z,8.33
2019-05-18T11:35:59.656Z,7.03
2019-05-18T11:38:31.644Z,7.25
2019-05-18T11:41:03.729Z,6.80
2019-05-18T11:43:35.722Z,6.15
2019-05-18T11:46:07.838Z,6.00
2019-05-18T11:48:39.834Z,6.03
2019-05-18T11:51:11.932Z,6.58
2019-05-18T11:53:57.446Z,6.08
2019-05-18T11:56:18.171Z,6.92
2019-05-18T11:58:50.223Z,7.35
2019-05-18T12:01:22.372Z,6.75
2019-05-18T12:03:55.443Z,7.60
2019-05-18T12:06:27.832Z,5.72
2019-05-18T12:09:00.006Z,7.40
2019-05-18T12:11:32.086Z,6.55
2019-05-18T12:14:04.193Z,6.40
2019-05-18T12:16:36.388Z,7.58
2019-05-18T12:19:08.624Z,5.42
2019-05-18T12:21:40.902Z,6.35
2019-05-18T12:24:15.757Z,6.62
2019-05-18T12:26:47.265Z,6.50
2019-05-18T12:29:19.397Z,7.25
2019-05-18T12:31:51.937Z,7.28
2019-05-18T12:34:24.072Z,6.75
2019-05-18T12:36:56.054Z,6.70
2019-05-18T12:39:28.072Z,6.55
2019-05-18T12:42:00.204Z,6.40
2019-05-18T12:44:32.708Z,7.40
2019-05-18T12:47:04.791Z,6.67
2019-05-18T12:49:37.028Z,5.15
2019-05-18T12:52:10.749Z,6.35
2019-05-18T12:54:46.605Z,7.25
2019-05-18T12:57:16.680Z,6.70
2019-05-18T12:59:48.896Z,6.10
2019-05-18T13:02:28.360Z,6.80
2019-05-18T13:05:00.385Z,7.30
2019-05-18T13:07:32.551Z,6.37
2019-05-18T13:10:05.204Z,6.22
2019-05-18T13:12:37.292Z,6.05
2019-05-18T13:15:11.810Z,5.90
2019-05-18T13:17:43.910Z,4.35
2019-05-18T13:20:16.660Z,3.70
2019-05-18T13:22:48.888Z,3.47
2019-05-18T13:25:21.377Z,3.98
2019-05-18T13:27:54.578Z,3.02
2019-05-18T13:30:27.043Z,2.85
2019-05-18T13:33:02.306Z,2.87
2019-05-18T13:35:34.505Z,2.80
2019-05-18T13:38:06.635Z,2.52
2019-05-18T13:40:38.722Z,3.20
2019-05-18T13:43:10.700Z,2.75
2019-05-18T13:45:43.121Z,2.90
2019-05-18T13:48:15.331Z,2.45
2019-05-18T13:50:47.345Z,3.35
2019-05-18T13:53:19.619Z,3.40
2019-05-18T13:55:51.666Z,2.95
2019-05-18T13:58:23.830Z,2.50
2019-05-18T14:00:55.993Z,4.00
2019-05-18T14:03:28.179Z,3.85
2019-05-18T14:06:00.351Z,4.75
2019-05-18T14:08:32.461Z,5.92
2019-05-18T14:11:04.749Z,4.05
2019-05-18T14:13:36.801Z,5.92
2019-05-18T14:16:08.839Z,8.60
2019-05-18T14:18:42.233Z,5.55
2019-05-18T14:21:15.859Z,6.45
2019-05-18T14:23:47.940Z,4.80
2019-05-18T14:26:20.321Z,6.75
2019-05-18T14:28:52.781Z,6.20
2019-05-18T14:31:25.825Z,3.33
2019-05-18T14:33:58.015Z,6.85
2019-05-18T14:36:30.796Z,3.85
2019-05-18T14:39:02.928Z,3.83
2019-05-18T14:41:36.262Z,3.90
2019-05-18T14:44:08.474Z,3.90
2019-05-18T14:46:40.580Z,4.10
2019-05-18T14:49:12.637Z,3.35
2019-05-18T14:51:44.723Z,3.80
2019-05-18T14:54:24.966Z,3.00
2019-05-18T14:56:54.447Z,3.10
2019-05-18T14:59:29.490Z,2.83
2019-05-18T15:02:01.912Z,2.90
2019-05-18T15:04:34.089Z,3.60
2019-05-18T15:07:06.286Z,2.95
2019-05-18T15:09:40.549Z,2.62
2019-05-18T15:12:12.624Z,5.47
2019-05-18T15:14:44.678Z,9.83
2019-05-18T15:17:16.906Z,8.63
2019-05-18T15:19:49.080Z,13.62
2019-05-18T15:22:24.339Z,5.70
2019-05-18T15:24:56.555Z,5.35
2019-05-18T15:27:28.992Z,41.05
2019-05-18T15:30:04.182Z,3.45
2019-05-18T15:32:52.613Z,3.20
2019-05-18T15:35:33.191Z,4.40
2019-05-18T15:38:12.441Z,3.47
2019-05-18T15:40:47.916Z,3.10
2019-05-18T15:43:28.039Z,3.27
2019-05-18T15:46:04.897Z,2.95
2019-05-18T15:48:45.358Z,5.75
2019-05-18T15:51:20.421Z,2.20
2019-05-18T15:54:10.884Z,5.42
2019-05-18T15:56:56.580Z,3.10
2019-05-18T15:59:41.521Z,2.60
2019-05-18T16:02:13.416Z,3.52
2019-05-18T16:04:45.813Z,3.70
2019-05-18T16:07:17.938Z,2.80
2019-05-18T16:09:50.156Z,3.35
2019-05-18T16:12:22.232Z,3.10
2019-05-18T16:14:55.334Z,2.72
2019-05-18T16:17:38.895Z,2.72
2019-05-18T16:20:01.120Z,3.37
2019-05-18T16:22:33.618Z,3.47
2019-05-18T16:25:06.692Z,3.00
2019-05-18T16:27:38.856Z,3.55
2019-05-18T16:30:11.742Z,3.92
2019-05-18T16:32:43.899Z,3.90
2019-05-18T16:35:17.572Z,4.20
2019-05-18T16:37:49.574Z,3.67
2019-05-18T16:40:21.818Z,3.60
2019-05-18T16:42:53.743Z,3.75
2019-05-18T16:45:25.672Z,3.22
2019-05-18T16:47:57.696Z,3.27
2019-05-18T16:50:29.813Z,3.45
2019-05-18T16:53:02.164Z,3.70
2019-05-18T16:55:34.371Z,3.60
2019-05-18T16:58:06.555Z,3.47
2019-05-18T17:00:39.260Z,5.00
2019-05-18T17:03:14.004Z,3.83
2019-05-18T17:05:46.336Z,3.00
2019-05-18T17:08:18.367Z,3.33
2019-05-18T17:10:50.619Z,2.90
2019-05-18T17:13:23.730Z,2.83
2019-05-18T17:15:55.886Z,3.05
2019-05-18T17:18:27.899Z,2.30
2019-05-18T17:21:00.086Z,2.80
2019-05-18T17:23:32.099Z,2.77
2019-05-18T17:26:04.043Z,2.50
2019-05-18T17:28:36.214Z,2.40
2019-05-18T17:31:08.496Z,2.37
2019-05-18T17:33:40.725Z,2.98
2019-05-18T17:36:13.983Z,2.70
2019-05-18T17:38:46.081Z,2.50
2019-05-18T17:41:18.487Z,3.20
2019-05-18T17:43:50.521Z,2.60
2019-05-18T17:46:22.579Z,2.62
2019-05-18T17:48:54.893Z,2.30
2019-05-18T17:51:27.120Z,3.05
2019-05-18T17:53:59.237Z,4.70
2019-05-18T17:56:31.303Z,3.72
2019-05-18T17:59:05.193Z,3.30
2019-05-18T18:01:37.602Z,4.70
2019-05-18T18:04:09.804Z,4.20
2019-05-18T18:06:45.011Z,3.35
2019-05-18T18:09:17.147Z,3.00
2019-05-18T18:11:49.483Z,3.37
2019-05-18T18:14:21.800Z,3.12
2019-05-18T18:16:54.138Z,2.95
2019-05-18T18:19:27.967Z,3.10
2019-05-18T18:22:00.291Z,8.38
2019-05-18T18:24:36.428Z,7.42
2019-05-18T18:27:23.790Z,4.92
2019-05-18T18:29:42.482Z,4.00
2019-05-18T18:32:14.596Z,4.47
2019-05-18T18:34:46.708Z,6.42
2019-05-18T18:37:18.775Z,5.10
2019-05-18T18:39:52.542Z,5.90
2019-05-18T18:42:24.936Z,4.25
2019-05-18T18:44:57.016Z,4.20
2019-05-18T18:47:29.125Z,3.52
2019-05-18T18:50:02.703Z,4.00
2019-05-18T18:52:34.795Z,3.75
2019-05-18T18:55:07.390Z,3.30
2019-05-18T18:57:42.226Z,5.65
2019-05-18T19:00:16.234Z,4.33
2019-05-18T19:02:48.363Z,3.58
2019-05-18T19:05:20.559Z,3.92
2019-05-18T19:07:52.789Z,4.30
2019-05-18T19:10:25.108Z,5.22
2019-05-18T19:12:57.309Z,8.03
2019-05-18T19:15:32.288Z,7.70
2019-05-18T19:18:04.451Z,7.67
2019-05-18T19:20:36.542Z,5.45
2019-05-18T19:23:09.514Z,4.40
2019-05-18T19:25:41.822Z,5.80
2019-05-18T19:28:13.911Z,5.22
2019-05-18T19:30:46.050Z,5.10
2019-05-18T19:33:18.398Z,5.65
2019-05-18T19:35:50.637Z,4.70
2019-05-18T19:38:22.836Z,5.17
2019-05-18T19:40:55.245Z,5.28
2019-05-18T19:43:27.469Z,4.80
2019-05-18T19:45:59.604Z,5.30
2019-05-18T19:48:32.625Z,4.28
2019-05-18T19:51:04.702Z,4.20
2019-05-18T19:53:37.073Z,4.30
2019-05-18T19:56:09.485Z,4.05
2019-05-18T19:58:41.525Z,5.03
2019-05-18T20:01:13.459Z,4.20
2019-05-18T20:03:45.467Z,3.70
2019-05-18T20:06:17.484Z,4.05
2019-05-18T20:08:51.807Z,3.83
2019-05-18T20:11:25.446Z,4.03
2019-05-18T20:14:00.328Z,3.67
2019-05-18T20:16:35.374Z,3.80
2019-05-18T20:19:07.979Z,3.80
2019-05-18T20:21:40.072Z,3.55
2019-05-18T20:24:12.188Z,3.77
2019-05-18T20:26:44.327Z,4.30
2019-05-18T20:29:16.185Z,3.92
2019-05-18T20:31:48.283Z,3.90
2019-05-18T20:34:21.772Z,3.10
2019-05-18T20:36:53.764Z,3.50
2019-05-18T20:39:25.803Z,3.60
2019-05-18T20:41:57.914Z,3.72
2019-05-18T20:44:30.042Z,3.47
2019-05-18T20:47:03.243Z,4.10
2019-05-18T20:49:35.238Z,3.70
2019-05-18T20:52:07.396Z,4.03
2019-05-18T20:54:39.371Z,3.22
2019-05-18T20:57:11.446Z,3.35
2019-05-18T20:59:43.578Z,3.75
2019-05-18T21:02:15.709Z,3.55
2019-05-18T21:04:47.796Z,3.50
2019-05-18T21:07:19.933Z,4.55
2019-05-18T21:09:51.940Z,4.45
2019-05-18T21:12:24.057Z,4.62
2019-05-18T21:14:56.123Z,4.72
2019-05-18T21:17:28.151Z,5.05
2019-05-18T21:20:00.138Z,5.78
2019-05-18T21:22:32.141Z,5.03
2019-05-18T21:25:04.194Z,5.10
2019-05-18T21:27:36.597Z,5.20
2019-05-18T21:30:08.942Z,5.10
2019-05-18T21:32:41.077Z,5.10
2019-05-18T21:35:13.203Z,5.45
2019-05-18T21:37:45.214Z,5.95
2019-05-18T21:40:19.255Z,5.30
2019-05-18T21:42:51.426Z,5.80
2019-05-18T21:45:23.582Z,6.30
2019-05-18T21:47:55.657Z,5.55
2019-05-18T21:50:27.703Z,6.08
2019-05-18T21:52:59.859Z,5.70
2019-05-18T21:55:31.913Z,5.75
2019-05-18T21:58:03.829Z,6.17
2019-05-18T22:00:35.773Z,6.37
2019-05-18T22:03:09.328Z,7.05
2019-05-18T22:05:41.643Z,7.60
2019-05-18T22:08:14.811Z,6.80
2019-05-18T22:10:46.719Z,6.87
2019-05-18T22:13:18.840Z,7.55
2019-05-18T22:15:50.927Z,7.20
2019-05-18T22:18:24.877Z,7.62
2019-05-18T22:20:56.681Z,7.40
2019-05-18T22:23:28.706Z,7.20
2019-05-18T22:26:01.099Z,6.65
2019-05-18T22:28:33.088Z,7.67
2019-05-18T22:31:05.505Z,6.87
2019-05-18T22:33:37.546Z,6.50
2019-05-18T22:36:09.676Z,6.87
2019-05-18T22:38:41.778Z,6.67
2019-05-18T22:41:13.888Z,6.72
2019-05-18T22:43:46.008Z,6.75
2019-05-18T22:46:18.032Z,6.28
2019-05-18T22:48:49.993Z,6.28
2019-05-18T22:51:22.138Z,6.15
2019-05-18T22:53:54.128Z,5.70
2019-05-18T22:56:26.210Z,6.62
2019-05-18T22:58:58.323Z,6.17
2019-05-18T23:01:30.317Z,6.70
2019-05-18T23:04:02.330Z,5.90
2019-05-18T23:06:34.352Z,5.95
2019-05-18T23:09:07.919Z,6.53
2019-05-18T23:11:40.050Z,6.03
2019-05-18T23:14:12.090Z,5.60
2019-05-18T23:16:44.104Z,5.15
2019-05-18T23:19:16.156Z,5.45
2019-05-18T23:21:48.456Z,5.47
2019-05-18T23:24:20.551Z,5.40
2019-05-18T23:26:52.695Z,5.28
2019-05-18T23:29:24.723Z,5.33
2019-05-18T23:31:56.789Z,6.37
2019-05-18T23:34:28.900Z,6.03
2019-05-18T23:37:00.949Z,6.03
2019-05-18T23:39:33.099Z,5.65
2019-05-18T23:42:05.302Z,6.03
2019-05-18T23:44:37.390Z,7.00
2019-05-18T23:47:09.458Z,4.95
2019-05-18T23:49:41.494Z,7.53
2019-05-18T23:52:13.466Z,6.17
2019-05-18T23:54:45.614Z,6.40
2019-05-18T23:57:17.619Z,5.62
2019-05-18T23:59:49.760Z,5.97
